Time;durP1;ratioP1;P1;durP2;ratioP2;P2;SDS_P1;SDS_P2;PMS_P1;PMS_P2;Temp;Humidity;BMP_temperature;BMP_pressure;BME280_temperature;BME280_humidity;BME280_pressure;Samples;Min_cycle;Max_cycle;Signal;HPM_P1;HPM_P2
2023/05/12 00:01:01;;;;;;;6.13;4.40;;;14.70;99.90;;;;;;5069416;28;20886;-63
2023/05/12 00:03:29;;;;;;;5.70;4.67;;;14.70;99.90;;;;;;5071073;28;20957;-62
2023/05/12 00:05:56;;;;;;;4.90;4.27;;;14.70;99.90;;;;;;5071967;28;20490;-62
2023/05/12 00:08:23;;;;;;;6.80;4.20;;;14.80;99.90;;;;;;5072443;28;20478;-62
2023/05/12 00:10:50;;;;;;;5.10;4.60;;;14.80;99.90;;;;;;5073124;28;20481;-63
2023/05/12 00:13:17;;;;;;;6.90;5.33;;;14.80;99.90;;;;;;5059511;28;20559;-62
2023/05/12 00:15:44;;;;;;;5.87;4.50;;;14.40;99.90;;;;;;5070778;28;21413;-63
2023/05/12 00:18:11;;;;;;;10.20;4.40;;;14.80;99.90;;;;;;5071263;28;20478;-63
2023/05/12 00:20:39;;;;;;;6.03;4.40;;;14.80;99.90;;;;;;5069027;28;20874;-62
2023/05/12 00:23:06;;;;;;;5.30;4.80;;;14.70;99.90;;;;;;5069008;28;20478;-62
2023/05/12 00:25:33;;;;;;;8.33;5.60;;;14.80;99.90;;;;;;5070491;28;20693;-62
2023/05/12 00:28:00;;;;;;;10.27;5.33;;;14.80;99.90;;;;;;5071042;28;20837;-62
2023/05/12 00:30:27;;;;;;;4.87;4.47;;;14.70;99.90;;;;;;5071241;28;21239;-62
2023/05/12 00:32:54;;;;;;;5.80;5.30;;;14.70;99.90;;;;;;5069942;28;20478;-63
2023/05/12 00:35:21;;;;;;;7.93;4.60;;;14.70;99.90;;;;;;5069400;28;20467;-62
2023/05/12 00:37:49;;;;;;;4.80;4.20;;;14.70;99.90;;;;;;5065907;28;20474;-63
2023/05/12 00:40:16;;;;;;;7.70;5.17;;;14.70;99.90;;;;;;5067592;28;20482;-62
2023/05/12 00:42:43;;;;;;;8.30;4.60;;;14.70;99.90;;;;;;5070888;28;20483;-63
2023/05/12 00:45:11;;;;;;;6.57;4.80;;;14.70;99.90;;;;;;5071314;28;20520;-63
2023/05/12 00:47:38;;;;;;;8.73;5.03;;;14.60;99.90;;;;;;5069258;28;20478;-62
2023/05/12 00:50:07;;;;;;;5.00;4.30;;;14.60;99.90;;;;;;5072837;28;20676;-63
2023/05/12 00:52:34;;;;;;;5.90;4.03;;;14.50;99.90;;;;;;5074225;28;20474;-62
2023/05/12 00:55:04;;;;;;;9.73;5.07;;;14.50;99.90;;;;;;5073987;28;21237;-62
2023/05/12 00:57:32;;;;;;;5.10;4.60;;;14.60;99.90;;;;;;5073657;28;21001;-62
2023/05/12 00:59:59;;;;;;;6.47;5.03;;;14.60;99.90;;;;;;5071098;28;20518;-63
2023/05/12 01:02:26;;;;;;;6.40;4.30;;;14.60;99.90;;;;;;5074285;28;20477;-62
2023/05/12 01:04:53;;;;;;;5.40;4.63;;;14.60;99.90;;;;;;5074413;28;20753;-62
2023/05/12 01:07:22;;;;;;;8.67;5.07;;;14.60;99.90;;;;;;5074793;28;20470;-63
2023/05/12 01:09:53;;;;;;;5.17;4.67;;;14.70;99.90;;;;;;5092507;27;20491;-63
2023/05/12 01:12:21;;;;;;;6.37;5.20;;;14.60;99.90;;;;;;5075212;27;21206;-62
2023/05/12 01:14:48;;;;;;;5.07;4.57;;;14.70;99.90;;;;;;5073870;28;20493;-63
2023/05/12 01:17:19;;;;;;;11.90;6.00;;;14.70;99.90;;;;;;5075099;28;20486;-62
2023/05/12 01:19:49;;;;;;;5.03;4.53;;;14.70;99.90;;;;;;5074190;28;20982;-62
2023/05/12 01:22:17;;;;;;;5.53;4.70;;;14.60;99.90;;;;;;5072779;28;20505;-63
2023/05/12 01:24:48;;;;;;;5.03;4.53;;;14.70;99.90;;;;;;5073214;28;20490;-63
2023/05/12 01:27:17;;;;;;;6.50;5.80;;;14.70;99.90;;;;;;5091935;27;20479;-63
2023/05/12 01:29:46;;;;;;;7.20;4.90;;;14.70;99.90;;;;;;5077395;27;20581;-62
2023/05/12 01:32:14;;;;;;;8.17;5.70;;;14.70;99.90;;;;;;5075441;27;20484;-62
2023/05/12 01:34:42;;;;;;;6.40;5.67;;;14.70;99.90;;;;;;5095246;27;20492;-62
2023/05/12 01:37:09;;;;;;;5.33;4.77;;;14.70;99.90;;;;;;5073485;28;20539;-62
2023/05/12 01:39:36;;;;;;;6.73;5.50;;;14.70;99.90;;;;;;5072123;27;20484;-62
2023/05/12 01:42:05;;;;;;;8.23;4.80;;;14.70;99.90;;;;;;5091918;27;20556;-63
2023/05/12 01:44:33;;;;;;;6.63;4.87;;;14.70;99.90;;;;;;5074070;28;20470;-62
2023/05/12 01:47:01;;;;;;;5.57;4.97;;;14.70;99.90;;;;;;5073817;28;20500;-62
2023/05/12 01:49:27;;;;;;;8.30;5.30;;;14.70;99.90;;;;;;5073182;28;20888;-63
2023/05/12 01:51:54;;;;;;;6.30;5.43;;;14.70;99.90;;;;;;5073931;28;20486;-63
2023/05/12 01:54:21;;;;;;;9.33;5.73;;;14.70;99.90;;;;;;5070647;28;20693;-62
2023/05/12 01:56:48;;;;;;;11.13;5.80;;;14.70;99.90;;;;;;5096147;27;20924;-62
2023/05/12 01:59:15;;;;;;;6.50;5.80;;;14.60;99.90;;;;;;5073612;28;20482;-63
2023/05/12 02:01:43;;;;;;;7.80;5.30;;;14.70;99.90;;;;;;5088294;27;20959;-63
2023/05/12 02:04:10;;;;;;;7.37;5.77;;;14.60;99.90;;;;;;5079061;27;20829;-63
2023/05/12 02:06:36;;;;;;;6.90;5.73;;;14.60;99.90;;;;;;5073151;28;20482;-62
2023/05/12 02:09:03;;;;;;;6.10;5.20;;;14.60;99.90;;;;;;5074914;28;20482;-62
2023/05/12 02:11:30;;;;;;;6.17;5.00;;;14.60;99.90;;;;;;5061682;28;20964;-62
2023/05/12 02:13:57;;;;;;;9.03;6.07;;;14.60;99.90;;;;;;5072519;28;20477;-62
2023/05/12 02:16:24;;;;;;;7.00;5.77;;;14.60;99.90;;;;;;5069817;28;20850;-63
2023/05/12 02:18:52;;;;;;;8.97;7.50;;;14.60;99.90;;;;;;5073296;28;20478;-62
2023/05/12 02:21:19;;;;;;;12.00;5.70;;;14.60;99.90;;;;;;5081909;27;20740;-62
2023/05/12 02:23:46;;;;;;;6.63;5.70;;;14.60;99.90;;;;;;5085144;27;20501;-63
2023/05/12 02:26:13;;;;;;;12.03;6.53;;;14.60;99.90;;;;;;5071823;28;20480;-63
2023/05/12 02:28:40;;;;;;;6.80;5.70;;;14.50;99.90;;;;;;5073046;28;20483;-63
2023/05/12 02:31:07;;;;;;;7.63;5.63;;;14.60;99.90;;;;;;5068780;28;20537;-62
2023/05/12 02:33:34;;;;;;;9.73;8.67;;;14.60;99.90;;;;;;5070616;28;20479;-62
2023/05/12 02:36:02;;;;;;;49.73;28.97;;;14.50;99.90;;;;;;5072838;28;21150;-62
2023/05/12 02:38:29;;;;;;;8.47;7.33;;;14.50;99.90;;;;;;5065315;27;20585;-62
2023/05/12 02:40:56;;;;;;;9.80;5.17;;;14.40;99.90;;;;;;5096296;27;20680;-63
2023/05/12 02:43:23;;;;;;;7.00;6.30;;;14.20;99.90;;;;;;5071737;28;20842;-62
2023/05/12 02:45:50;;;;;;;8.03;5.97;;;14.20;99.90;;;;;;5069668;28;20485;-62
2023/05/12 02:48:17;;;;;;;10.00;6.33;;;14.10;99.90;;;;;;5065821;28;20498;-63
2023/05/12 02:50:44;;;;;;;6.17;5.50;;;14.00;99.90;;;;;;5067160;28;21094;-62
2023/05/12 02:53:12;;;;;;;8.20;6.10;;;14.10;99.90;;;;;;5087206;27;21075;-62
2023/05/12 02:55:39;;;;;;;11.20;6.57;;;14.10;99.90;;;;;;5072142;28;20466;-62
2023/05/12 02:58:06;;;;;;;7.47;5.40;;;14.10;99.90;;;;;;5072869;28;20478;-62
2023/05/12 03:00:33;;;;;;;7.40;5.60;;;14.20;99.90;;;;;;5077186;28;20486;-62
2023/05/12 03:03:00;;;;;;;9.37;6.10;;;14.20;99.90;;;;;;5086611;27;20813;-61
2023/05/12 03:05:26;;;;;;;7.37;5.83;;;14.20;99.90;;;;;;5080477;28;20938;-61
2023/05/12 03:07:53;;;;;;;9.70;6.40;;;14.30;99.90;;;;;;5093105;28;20473;-61
2023/05/12 03:10:22;;;;;;;8.60;6.80;;;14.30;99.90;;;;;;5066402;27;20558;-61
2023/05/12 03:12:48;;;;;;;7.27;5.47;;;14.30;99.90;;;;;;5115883;27;20540;-61
2023/05/12 03:15:15;;;;;;;8.90;5.97;;;14.30;99.90;;;;;;5075635;28;20470;-61
2023/05/12 03:17:42;;;;;;;9.53;6.60;;;14.20;99.90;;;;;;5091504;28;20484;-61
2023/05/12 03:20:09;;;;;;;8.53;6.23;;;14.20;99.90;;;;;;5094215;28;20737;-61
2023/05/12 03:22:36;;;;;;;9.93;5.93;;;14.20;99.90;;;;;;5092855;28;20481;-62
2023/05/12 03:25:04;;;;;;;7.80;5.90;;;14.20;99.90;;;;;;5075533;28;21153;-63
2023/05/12 03:27:32;;;;;;;7.50;6.00;;;14.10;99.90;;;;;;5080297;28;20912;-62
2023/05/12 03:30:00;;;;;;;9.33;6.97;;;14.50;99.90;;;;;;5079838;28;20508;-62
2023/05/12 03:32:27;;;;;;;9.23;5.73;;;14.10;99.90;;;;;;5095632;28;20619;-62
2023/05/12 03:34:54;;;;;;;10.93;6.87;;;14.10;99.90;;;;;;5090911;27;20481;-63
2023/05/12 03:37:21;;;;;;;8.07;6.77;;;14.10;99.90;;;;;;5088344;28;20487;-62
2023/05/12 03:39:48;;;;;;;10.60;6.00;;;14.10;99.90;;;;;;5089178;28;20982;-63
2023/05/12 03:42:15;;;;;;;9.17;6.57;;;14.20;99.90;;;;;;5095942;27;20527;-62
2023/05/12 03:44:43;;;;;;;13.10;6.97;;;14.30;99.90;;;;;;5088937;28;21022;-62
2023/05/12 03:47:10;;;;;;;8.37;6.03;;;14.30;99.90;;;;;;5092100;27;21022;-62
2023/05/12 03:49:37;;;;;;;9.07;6.37;;;14.30;99.90;;;;;;5078946;27;20474;-62
2023/05/12 03:52:04;;;;;;;13.90;6.13;;;14.30;99.90;;;;;;5075621;28;20489;-62
2023/05/12 03:54:31;;;;;;;9.50;6.70;;;14.30;99.90;;;;;;5077248;28;22158;-62
2023/05/12 03:56:58;;;;;;;15.17;7.20;;;14.30;99.90;;;;;;5085398;28;20516;-62
2023/05/12 03:59:25;;;;;;;12.70;7.20;;;14.30;99.90;;;;;;5083059;28;20482;-63
2023/05/12 04:01:53;;;;;;;13.20;7.50;;;14.20;99.90;;;;;;5091630;28;20559;-62
2023/05/12 04:04:20;;;;;;;12.23;6.70;;;14.30;99.90;;;;;;5073429;28;20497;-62
2023/05/12 04:06:47;;;;;;;9.13;6.97;;;14.20;99.90;;;;;;5068799;28;20543;-63
2023/05/12 04:09:13;;;;;;;7.07;6.37;;;14.20;99.90;;;;;;5081562;28;21002;-62
2023/05/12 04:11:40;;;;;;;8.20;7.00;;;14.30;99.90;;;;;;5061768;28;20478;-62
2023/05/12 04:14:07;;;;;;;8.60;6.77;;;14.20;99.90;;;;;;5071907;28;20510;-61
2023/05/12 04:16:34;;;;;;;8.57;6.80;;;14.20;99.90;;;;;;5076405;28;20482;-62
2023/05/12 04:19:02;;;;;;;9.23;7.30;;;14.10;99.90;;;;;;5076076;28;20475;-62
2023/05/12 04:21:29;;;;;;;9.63;7.20;;;14.20;99.90;;;;;;5082831;27;20479;-61
2023/05/12 04:23:57;;;;;;;11.73;6.80;;;14.20;99.90;;;;;;5085227;28;20483;-61
2023/05/12 04:26:25;;;;;;;9.13;7.30;;;14.20;99.90;;;;;;5095838;27;20500;-61
2023/05/12 04:28:52;;;;;;;7.50;5.97;;;14.30;99.90;;;;;;5094342;27;20485;-62
2023/05/12 04:31:19;;;;;;;10.97;7.97;;;14.30;99.90;;;;;;5085900;28;20477;-62
2023/05/12 04:33:46;;;;;;;12.70;7.60;;;14.30;99.90;;;;;;5087865;28;20580;-62
2023/05/12 04:36:14;;;;;;;9.63;7.50;;;14.30;99.90;;;;;;5087327;27;20474;-62
2023/05/12 04:38:41;;;;;;;9.90;7.10;;;14.40;99.90;;;;;;5110363;27;20485;-62
2023/05/12 04:41:08;;;;;;;10.70;7.67;;;14.40;99.90;;;;;;5074604;28;20800;-62
2023/05/12 04:43:34;;;;;;;11.03;7.40;;;14.40;99.90;;;;;;5088668;27;20900;-62
2023/05/12 04:46:01;;;;;;;10.77;7.80;;;14.40;99.90;;;;;;5098707;28;21028;-62
2023/05/12 04:48:28;;;;;;;11.30;7.93;;;14.40;99.90;;;;;;5098654;27;20488;-63
2023/05/12 04:50:58;;;;;;;12.70;10.10;;;14.50;99.90;;;;;;5078096;28;20501;-63
2023/05/12 04:53:26;;;;;;;11.83;8.33;;;14.50;99.90;;;;;;5089977;28;21699;-62
2023/05/12 04:55:55;;;;;;;11.23;8.27;;;14.50;99.90;;;;;;5076910;28;20493;-61
2023/05/12 04:58:22;;;;;;;12.10;7.70;;;14.50;99.90;;;;;;5077934;28;20942;-61
2023/05/12 05:00:48;;;;;;;9.67;7.40;;;14.60;99.90;;;;;;5078557;28;20478;-61
2023/05/12 05:03:15;;;;;;;10.27;7.77;;;14.70;99.90;;;;;;5081555;28;20485;-61
2023/05/12 05:05:42;;;;;;;12.70;7.93;;;14.60;99.90;;;;;;5085800;28;20991;-62
2023/05/12 05:08:09;;;;;;;15.20;8.10;;;14.60;99.90;;;;;;5081222;27;20554;-62
2023/05/12 05:10:37;;;;;;;14.93;7.60;;;14.70;99.90;;;;;;5076515;28;20470;-61
2023/05/12 05:13:04;;;;;;;11.30;7.50;;;14.60;99.90;;;;;;5078766;28;21119;-62
2023/05/12 05:15:31;;;;;;;10.27;7.83;;;14.60;99.90;;;;;;5093462;27;20470;-62
2023/05/12 05:17:58;;;;;;;9.17;6.53;;;14.50;99.90;;;;;;5081555;27;21080;-61
2023/05/12 05:20:27;;;;;;;8.50;7.10;;;14.50;99.90;;;;;;5097051;27;20477;-62
2023/05/12 05:22:54;;;;;;;8.73;6.00;;;14.40;99.90;;;;;;5080937;28;20484;-63
2023/05/12 05:25:20;;;;;;;10.60;7.47;;;14.50;99.90;;;;;;5092301;27;20517;-61
2023/05/12 05:27:49;;;;;;;11.67;8.57;;;14.50;99.90;;;;;;5078129;28;20486;-61
2023/05/12 05:30:16;;;;;;;10.80;7.90;;;14.50;99.90;;;;;;5078573;28;20470;-62
2023/05/12 05:32:43;;;;;;;9.83;7.17;;;14.50;99.90;;;;;;5077699;28;20504;-61
2023/05/12 05:35:10;;;;;;;9.90;5.73;;;14.50;99.90;;;;;;5077264;28;20869;-61
2023/05/12 05:37:36;;;;;;;5.20;4.47;;;14.50;99.90;;;;;;5076509;28;20512;-62
2023/05/12 05:40:04;;;;;;;7.80;4.80;;;14.50;99.90;;;;;;5084436;27;20514;-61
2023/05/12 05:42:31;;;;;;;7.70;5.43;;;14.50;99.90;;;;;;5092037;27;20523;-61
2023/05/12 05:44:59;;;;;;;8.83;4.83;;;14.50;99.90;;;;;;5076832;28;20485;-62
2023/05/12 05:47:27;;;;;;;7.37;4.73;;;14.50;99.90;;;;;;5108929;27;20474;-62
2023/05/12 05:49:54;;;;;;;5.27;4.77;;;14.50;99.90;;;;;;5076398;28;20486;-61
2023/05/12 05:52:21;;;;;;;5.13;4.50;;;14.50;99.90;;;;;;5077240;28;20478;-61
2023/05/12 05:54:48;;;;;;;5.80;4.50;;;14.50;99.90;;;;;;5087110;28;20759;-61
2023/05/12 05:57:15;;;;;;;6.77;4.73;;;14.50;99.90;;;;;;5089810;28;20562;-62
2023/05/12 05:59:41;;;;;;;3.93;3.53;;;14.50;99.90;;;;;;5090129;27;20465;-62
2023/05/12 06:02:10;;;;;;;4.50;3.20;;;14.40;99.90;;;;;;5094979;28;20546;-63
2023/05/12 06:04:37;;;;;;;5.30;2.30;;;14.40;99.90;;;;;;5081356;28;20973;-62
2023/05/12 06:07:04;;;;;;;3.80;2.30;;;14.30;99.90;;;;;;5070363;28;20482;-62
2023/05/12 06:09:31;;;;;;;4.00;2.77;;;14.30;99.90;;;;;;5081162;27;20484;-62
2023/05/12 06:11:58;;;;;;;3.33;2.73;;;14.40;99.90;;;;;;5098381;27;20478;-62
2023/05/12 06:14:25;;;;;;;7.70;3.43;;;14.40;99.90;;;;;;5079543;28;20476;-62
2023/05/12 06:16:51;;;;;;;3.40;3.07;;;14.40;99.90;;;;;;5072525;28;20471;-61
2023/05/12 06:19:19;;;;;;;4.80;3.97;;;14.40;99.90;;;;;;5089902;28;20478;-61
2023/05/12 06:21:46;;;;;;;6.00;3.87;;;14.40;99.90;;;;;;5088051;28;20485;-62
2023/05/12 06:24:13;;;;;;;9.03;4.50;;;14.50;99.90;;;;;;5080588;28;20517;-62
2023/05/12 06:26:40;;;;;;;5.73;4.40;;;14.50;99.90;;;;;;5094576;28;20477;-62
2023/05/12 06:29:07;;;;;;;4.80;3.87;;;14.50;99.90;;;;;;5080562;28;21680;-62
2023/05/12 06:31:34;;;;;;;5.73;4.10;;;14.50;99.90;;;;;;5078297;28;20482;-62
2023/05/12 06:34:02;;;;;;;5.70;4.33;;;14.40;99.90;;;;;;5075187;28;20489;-61
2023/05/12 06:36:30;;;;;;;4.47;3.77;;;14.40;99.90;;;;;;5075822;28;20477;-61
2023/05/12 06:38:57;;;;;;;6.40;3.90;;;14.40;99.90;;;;;;5071280;28;20874;-62
2023/05/12 06:41:24;;;;;;;5.57;4.40;;;14.40;99.90;;;;;;5076663;28;20474;-61
2023/05/12 06:43:51;;;;;;;7.13;4.53;;;14.40;99.90;;;;;;5077664;28;20482;-61
2023/05/12 06:46:18;;;;;;;6.10;4.20;;;14.50;99.90;;;;;;5078373;27;20474;-61
2023/05/12 06:48:45;;;;;;;6.60;4.90;;;14.50;99.90;;;;;;5109070;27;20496;-61
2023/05/12 06:51:12;;;;;;;5.27;4.77;;;14.60;99.90;;;;;;5096365;28;20485;-61
2023/05/12 06:53:41;;;;;;;7.80;4.80;;;14.70;99.90;;;;;;5086202;28;20814;-61
2023/05/12 06:56:10;;;;;;;15.70;5.93;;;14.80;99.90;;;;;;5089288;28;20470;-61
2023/05/12 06:58:37;;;;;;;6.20;5.17;;;14.70;99.90;;;;;;5066864;28;20789;-61
2023/05/12 07:01:04;;;;;;;8.20;5.10;;;14.70;99.90;;;;;;5076156;28;20470;-61
2023/05/12 07:03:32;;;;;;;6.03;5.20;;;14.70;99.90;;;;;;5074673;28;20483;-61
2023/05/12 07:05:59;;;;;;;9.00;5.13;;;14.60;99.90;;;;;;5094050;28;20465;-61
2023/05/12 07:08:26;;;;;;;6.60;5.40;;;14.70;99.90;;;;;;5072500;28;20857;-62
2023/05/12 07:10:55;;;;;;;8.43;6.03;;;14.80;99.90;;;;;;5088801;28;20481;-61
2023/05/12 07:13:22;;;;;;;6.30;5.13;;;14.90;99.90;;;;;;5087682;28;20474;-62
2023/05/12 07:15:49;;;;;;;7.63;5.60;;;15.00;99.90;;;;;;5075446;28;20943;-61
2023/05/12 07:18:16;;;;;;;8.27;6.33;;;15.00;99.90;;;;;;5074323;28;20474;-61
2023/05/12 07:20:43;;;;;;;11.87;7.00;;;15.10;99.90;;;;;;5082639;27;20981;-61
2023/05/12 07:23:10;;;;;;;7.57;6.17;;;15.20;99.90;;;;;;5070284;28;20474;-61
2023/05/12 07:25:37;;;;;;;8.30;6.67;;;15.10;99.90;;;;;;5086154;28;20485;-61
2023/05/12 07:28:05;;;;;;;9.13;6.50;;;15.10;99.90;;;;;;5079487;28;20827;-61
2023/05/12 07:30:32;;;;;;;8.20;7.00;;;15.00;99.90;;;;;;5079563;28;20474;-62
2023/05/12 07:33:00;;;;;;;10.73;7.00;;;14.90;99.90;;;;;;5091568;28;20849;-61
2023/05/12 07:35:27;;;;;;;10.07;7.07;;;14.90;99.90;;;;;;5082386;28;21122;-61
2023/05/12 07:37:54;;;;;;;7.37;6.03;;;15.00;99.90;;;;;;5095898;28;20649;-61
2023/05/12 07:40:21;;;;;;;10.20;6.73;;;15.00;99.90;;;;;;5095142;28;20500;-62
2023/05/12 07:42:47;;;;;;;9.90;6.80;;;15.10;99.90;;;;;;5082161;28;20478;-62
2023/05/12 07:45:21;;;;;;;8.80;6.93;;;15.10;99.90;;;;;;5077479;28;20695;-61
2023/05/12 07:47:49;;;;;;;9.03;6.50;;;15.10;99.90;;;;;;5074812;28;20586;-62
2023/05/12 07:50:16;;;;;;;9.47;6.80;;;15.20;99.90;;;;;;5072337;28;20475;-62
2023/05/12 07:52:47;;;;;;;8.93;7.10;;;15.10;99.90;;;;;;5077263;28;20591;-62
2023/05/12 07:55:15;;;;;;;11.27;7.73;;;15.10;99.90;;;;;;5074400;28;20884;-62
2023/05/12 07:57:42;;;;;;;7.87;6.53;;;15.10;99.90;;;;;;5074442;28;20515;-62
2023/05/12 08:00:10;;;;;;;9.80;7.20;;;15.20;99.90;;;;;;5082047;28;20963;-62
2023/05/12 08:02:38;;;;;;;10.30;7.50;;;15.20;99.90;;;;;;5078803;28;20481;-61
2023/05/12 08:05:07;;;;;;;11.07;7.70;;;15.30;99.90;;;;;;5078915;28;20461;-61
2023/05/12 08:07:34;;;;;;;12.90;9.53;;;15.50;99.90;;;;;;5099626;28;20489;-61
2023/05/12 08:10:01;;;;;;;12.00;9.10;;;15.60;99.90;;;;;;5076532;28;20857;-62
2023/05/12 08:12:28;;;;;;;11.00;8.13;;;15.70;99.90;;;;;;5097537;27;20802;-62
2023/05/12 08:15:08;;;;;;;20.30;9.47;;;15.90;99.90;;;;;;5078695;28;21050;-61
2023/05/12 08:17:35;;;;;;;8.57;6.60;;;15.90;99.90;;;;;;5080921;28;20489;-61
2023/05/12 08:20:04;;;;;;;9.23;7.17;;;16.00;99.90;;;;;;5078963;28;20494;-61
2023/05/12 08:22:31;;;;;;;9.43;7.30;;;16.10;99.90;;;;;;5075376;27;20478;-61
2023/05/12 08:24:57;;;;;;;11.87;7.80;;;16.20;99.90;;;;;;5081586;27;20474;-61
2023/05/12 08:27:24;;;;;;;9.70;6.90;;;16.20;99.90;;;;;;5089860;27;20469;-61
2023/05/12 08:29:51;;;;;;;9.03;6.33;;;16.30;99.90;;;;;;5067849;28;20482;-61
2023/05/12 08:32:18;;;;;;;8.03;5.97;;;16.40;99.90;;;;;;5085745;28;20501;-62
2023/05/12 08:34:45;;;;;;;8.47;6.27;;;16.40;99.90;;;;;;5076835;28;20840;-61
2023/05/12 08:37:13;;;;;;;6.80;6.10;;;16.50;99.90;;;;;;5084618;27;20473;-61
2023/05/12 08:39:40;;;;;;;6.90;5.90;;;16.60;99.90;;;;;;5084008;28;20831;-61
2023/05/12 08:42:18;;;;;;;7.03;5.97;;;16.80;99.90;;;;;;5085735;28;20465;-61
2023/05/12 08:44:46;;;;;;;6.40;4.90;;;16.90;99.90;;;;;;5089286;28;20482;-61
2023/05/12 08:47:14;;;;;;;5.97;5.20;;;17.10;99.90;;;;;;5088020;28;20466;-61
2023/05/12 08:49:43;;;;;;;8.53;5.83;;;17.20;99.90;;;;;;5078280;28;20963;-61
2023/05/12 08:52:17;;;;;;;7.17;4.63;;;17.30;99.90;;;;;;5077949;28;20479;-61
2023/05/12 08:54:44;;;;;;;6.97;5.20;;;17.40;99.90;;;;;;5077225;28;20864;-61
2023/05/12 08:57:12;;;;;;;4.80;4.40;;;17.50;99.90;;;;;;5090239;28;20830;-61
2023/05/12 08:59:43;;;;;;;5.13;4.13;;;17.50;99.90;;;;;;5078356;28;20485;-61
2023/05/12 09:02:11;;;;;;;5.43;4.40;;;17.50;99.90;;;;;;5078395;28;20497;-61
2023/05/12 09:04:38;;;;;;;5.30;4.80;;;17.60;99.90;;;;;;5075932;28;20818;-61
2023/05/12 09:07:06;;;;;;;7.37;4.83;;;17.60;99.90;;;;;;5086905;27;20547;-61
2023/05/12 09:09:36;;;;;;;12.63;5.40;;;17.80;99.90;;;;;;5077773;28;20486;-61
2023/05/12 09:12:05;;;;;;;4.53;4.13;;;17.90;99.90;;;;;;5079036;28;20645;-61
2023/05/12 09:14:36;;;;;;;4.70;4.20;;;17.90;99.90;;;;;;5080619;27;20482;-61
2023/05/12 09:17:04;;;;;;;4.47;4.07;;;18.00;99.90;;;;;;5087963;28;20562;-61
2023/05/12 09:19:31;;;;;;;4.80;4.30;;;18.10;99.90;;;;;;5091392;28;20508;-61
2023/05/12 09:21:59;;;;;;;6.53;4.80;;;18.10;99.90;;;;;;5077373;28;20561;-61
2023/05/12 09:24:35;;;;;;;4.63;4.10;;;18.20;99.90;;;;;;5075238;28;20487;-61
2023/05/12 09:27:03;;;;;;;6.70;3.73;;;18.20;99.90;;;;;;5070220;28;20478;-62
2023/05/12 09:29:30;;;;;;;4.60;4.20;;;18.30;99.90;;;;;;5071699;28;20527;-61
2023/05/12 09:31:58;;;;;;;3.60;3.23;;;18.20;99.60;;;;;;5067810;28;21244;-62
2023/05/12 09:34:28;;;;;;;4.17;3.77;;;18.10;99.70;;;;;;5059059;28;21729;-62
2023/05/12 09:36:56;;;;;;;3.97;3.30;;;18.10;99.90;;;;;;5054288;27;20775;-62
2023/05/12 09:39:23;;;;;;;3.90;3.37;;;18.00;99.90;;;;;;5087257;27;20478;-61
2023/05/12 09:41:52;;;;;;;4.17;3.30;;;18.00;99.40;;;;;;5070457;28;20482;-61
2023/05/12 09:44:19;;;;;;;3.10;2.80;;;17.90;99.30;;;;;;5070953;28;20483;-61
2023/05/12 09:46:46;;;;;;;2.80;2.60;;;17.90;99.90;;;;;;5071070;28;20474;-61
2023/05/12 09:49:17;;;;;;;4.27;2.87;;;18.00;99.90;;;;;;5072375;28;20482;-62
2023/05/12 09:51:44;;;;;;;3.10;2.80;;;18.00;99.30;;;;;;5069160;28;20474;-62
2023/05/12 09:54:12;;;;;;;6.53;4.30;;;18.20;99.50;;;;;;5070221;28;20509;-62
2023/05/12 09:56:41;;;;;;;3.90;3.50;;;18.20;99.80;;;;;;5078925;27;20508;-62
2023/05/12 09:59:12;;;;;;;4.80;4.20;;;18.20;99.70;;;;;;5077981;28;20756;-61
2023/05/12 10:01:40;;;;;;;4.87;4.17;;;18.10;99.40;;;;;;5069619;28;20561;-61
2023/05/12 10:04:08;;;;;;;4.50;4.00;;;18.10;99.90;;;;;;5070255;28;20491;-61
2023/05/12 10:06:40;;;;;;;4.20;3.80;;;18.20;99.90;;;;;;5071917;28;20481;-61
2023/05/12 10:09:14;;;;;;;3.77;3.13;;;18.30;99.90;;;;;;5071669;28;20467;-62
2023/05/12 10:11:41;;;;;;;3.33;3.03;;;18.30;99.50;;;;;;5071151;28;20485;-62
2023/05/12 10:14:10;;;;;;;3.90;2.50;;;18.20;99.10;;;;;;5072355;28;20482;-61
2023/05/12 10:16:37;;;;;;;5.33;3.43;;;;;;;;;;5091234;27;20946;-61
2023/05/12 10:19:05;;;;;;;3.70;3.40;;;18.10;99.40;;;;;;5070537;28;20479;-62
2023/05/12 10:21:32;;;;;;;6.57;3.00;;;18.10;99.10;;;;;;5071289;28;21178;-62
2023/05/12 10:24:00;;;;;;;2.53;2.33;;;18.20;99.50;;;;;;5067967;28;20471;-62
2023/05/12 10:26:28;;;;;;;2.97;2.67;;;18.30;99.20;;;;;;5070497;28;20466;-62
2023/05/12 10:28:55;;;;;;;3.80;3.50;;;18.50;99.70;;;;;;5076654;27;20603;-62
2023/05/12 10:31:26;;;;;;;6.30;3.27;;;18.90;98.70;;;;;;5084026;27;20482;-61
2023/05/12 10:33:57;;;;;;;3.20;2.90;;;18.90;99.00;;;;;;5070704;28;20826;-62
2023/05/12 10:36:24;;;;;;;3.53;2.97;;;19.00;98.30;;;;;;5092302;27;20485;-62
2023/05/12 10:38:51;;;;;;;3.47;3.17;;;19.10;97.80;;;;;;5071508;28;20947;-62
2023/05/12 10:41:29;;;;;;;3.00;2.70;;;19.10;97.90;;;;;;5070742;28;20473;-62
2023/05/12 10:43:56;;;;;;;3.07;2.53;;;19.10;97.90;;;;;;5068278;28;21086;-62
2023/05/12 10:46:25;;;;;;;6.30;2.80;;;19.30;99.00;;;;;;5071822;28;20440;-62
2023/05/12 10:48:54;;;;;;;4.43;2.60;;;19.30;98.40;;;;;;5070949;28;20491;-62
2023/05/12 10:51:23;;;;;;;2.20;2.00;;;19.50;97.90;;;;;;5070666;28;20453;-62
2023/05/12 10:53:57;;;;;;;2.50;1.83;;;19.70;97.50;;;;;;5073715;27;20452;-62
2023/05/12 10:56:26;;;;;;;2.77;1.93;;;19.70;97.00;;;;;;5070611;28;20491;-63
2023/05/12 10:59:13;;;;;;;4.70;1.80;;;19.60;96.20;;;;;;5069354;28;20800;-63
2023/05/12 11:01:43;;;;;;;2.00;1.50;;;19.50;96.40;;;;;;5062032;27;20475;-62
2023/05/12 11:04:11;;;;;;;4.93;2.50;;;19.40;96.90;;;;;;5073068;27;20484;-62
2023/05/12 11:06:38;;;;;;;2.77;2.37;;;19.40;97.10;;;;;;5070520;28;20474;-63
2023/05/12 11:09:06;;;;;;;3.90;2.20;;;19.30;96.90;;;;;;5070087;28;20550;-62
2023/05/12 11:11:33;;;;;;;5.40;1.67;;;19.40;97.40;;;;;;5069125;28;20489;-62
2023/05/12 11:14:01;;;;;;;2.10;1.87;;;19.40;97.50;;;;;;5069230;28;20475;-63
2023/05/12 11:16:27;;;;;;;3.03;2.20;;;19.30;96.60;;;;;;5070367;28;20486;-62
2023/05/12 11:19:02;;;;;;;2.83;2.50;;;19.30;97.00;;;;;;5068061;28;21032;-62
2023/05/12 11:21:30;;;;;;;3.43;2.00;;;19.20;96.90;;;;;;5075561;28;20477;-62
2023/05/12 11:23:59;;;;;;;2.53;2.30;;;19.10;96.60;;;;;;5075372;28;20500;-62
2023/05/12 11:26:26;;;;;;;2.50;2.30;;;19.10;96.30;;;;;;5082291;27;21001;-63
2023/05/12 11:28:52;;;;;;;2.90;2.50;;;19.20;97.10;;;;;;5086826;27;20946;-62
2023/05/12 11:31:20;;;;;;;4.27;2.80;;;19.20;96.80;;;;;;5087470;28;20478;-62
2023/05/12 11:33:47;;;;;;;2.63;2.43;;;19.40;97.60;;;;;;5089170;28;20492;-62
2023/05/12 11:36:19;;;;;;;3.00;2.77;;;19.60;97.80;;;;;;5086076;28;20481;-62
2023/05/12 11:38:50;;;;;;;3.83;2.30;;;19.80;97.60;;;;;;5062891;28;20864;-62
2023/05/12 11:41:25;;;;;;;3.33;3.03;;;19.90;97.10;;;;;;5078126;28;20467;-62
2023/05/12 11:43:52;;;;;;;4.20;3.50;;;19.80;97.00;;;;;;5081517;28;20965;-62
2023/05/12 11:46:26;;;;;;;3.60;3.27;;;19.70;96.20;;;;;;5071844;28;20489;-62
2023/05/12 11:48:56;;;;;;;3.20;2.93;;;19.70;96.90;;;;;;5066405;28;20808;-62
2023/05/12 11:51:25;;;;;;;5.07;3.23;;;19.60;97.20;;;;;;5082109;27;20800;-62
2023/05/12 11:53:53;;;;;;;4.30;3.90;;;19.60;97.00;;;;;;5078143;28;20472;-62
2023/05/12 11:56:22;;;;;;;3.77;3.47;;;19.60;96.70;;;;;;5059136;28;20874;-62
2023/05/12 11:58:54;;;;;;;4.47;3.30;;;19.60;97.40;;;;;;5075616;28;20456;-62
2023/05/12 12:01:21;;;;;;;3.53;3.23;;;19.60;96.70;;;;;;5072707;28;20855;-62
2023/05/12 12:03:49;;;;;;;7.13;4.23;;;19.80;98.20;;;;;;5076718;28;20501;-62
2023/05/12 12:06:17;;;;;;;4.47;4.13;;;19.80;96.60;;;;;;5079051;28;20954;-62
2023/05/12 12:08:54;;;;;;;6.10;4.30;;;19.80;97.00;;;;;;5088325;28;20803;-62
2023/05/12 12:11:22;;;;;;;4.50;4.03;;;19.80;97.70;;;;;;5071813;28;20502;-62
2023/05/12 12:13:55;;;;;;;3.53;3.23;;;19.80;97.50;;;;;;5079740;28;20512;-62
2023/05/12 12:16:23;;;;;;;5.20;4.40;;;19.70;96.60;;;;;;5087529;28;20482;-62
2023/05/12 12:18:50;;;;;;;5.13;4.50;;;19.70;96.80;;;;;;5078777;28;20448;-62
2023/05/12 12:21:17;;;;;;;5.77;3.90;;;19.70;97.30;;;;;;5078586;28;20491;-62
2023/05/12 12:23:44;;;;;;;6.37;5.77;;;19.70;97.80;;;;;;5072729;28;20570;-62
2023/05/12 12:26:15;;;;;;;4.77;4.30;;;19.60;97.20;;;;;;5093373;28;20535;-62
2023/05/12 12:28:42;;;;;;;5.57;4.93;;;19.60;96.90;;;;;;5076777;28;20445;-62
2023/05/12 12:31:08;;;;;;;4.57;4.17;;;19.50;97.10;;;;;;5076033;28;20486;-62
2023/05/12 12:33:35;;;;;;;4.00;2.73;;;19.40;97.40;;;;;;5095429;28;20564;-62
2023/05/12 12:36:02;;;;;;;3.07;2.77;;;19.40;96.70;;;;;;5075330;28;20479;-62
2023/05/12 12:38:29;;;;;;;3.83;3.43;;;19.40;97.00;;;;;;5069609;28;20489;-62
2023/05/12 12:40:56;;;;;;;3.17;2.87;;;19.40;97.60;;;;;;5083982;28;20524;-62
2023/05/12 12:43:24;;;;;;;2.97;1.67;;;19.40;96.70;;;;;;5092819;28;20482;-62
2023/05/12 12:45:51;;;;;;;2.17;1.90;;;19.30;96.30;;;;;;5074270;28;20908;-62
2023/05/12 12:48:18;;;;;;;2.03;1.67;;;19.20;96.50;;;;;;5080872;28;20449;-62